createdAt,value
2022-08-10T00:00:47.219Z,78.49782
2022-08-10T00:05:53.084Z,78.49782
2022-08-10T00:10:54.445Z,78.49782
2022-08-10T00:15:55.755Z,78.49782
2022-08-10T00:20:57.063Z,78.49782
2022-08-10T00:25:57.964Z,78.20479
2022-08-10T00:30:58.933Z,77.91304
2022-08-10T00:35:59.893Z,77.91304
2022-08-10T00:41:00.824Z,78.20479
2022-08-10T00:46:01.904Z,77.91304
2022-08-10T00:51:02.835Z,77.91304
2022-08-10T00:57:07.913Z,77.91304
2022-08-10T01:02:18.308Z,77.62256
2022-08-10T01:07:19.304Z,77.62256
2022-08-10T01:12:37.772Z,77.62256
2022-08-10T01:17:49.774Z,77.62256
2022-08-10T01:22:52.073Z,77.62256
2022-08-10T01:27:52.991Z,77.62256
2022-08-10T01:32:53.950Z,77.62256
2022-08-10T01:37:54.904Z,77.62256
2022-08-10T01:42:55.861Z,77.91304
2022-08-10T01:48:00.734Z,77.91304
2022-08-10T01:53:01.792Z,77.91304
2022-08-10T01:58:02.738Z,77.91304
2022-08-10T02:03:03.670Z,77.91304
2022-08-10T02:08:04.900Z,77.91304
2022-08-10T02:13:05.880Z,77.91304
2022-08-10T02:18:06.836Z,77.91304
2022-08-10T02:23:07.751Z,77.91304
2022-08-10T02:28:08.747Z,77.91304
2022-08-10T02:33:09.689Z,77.91304
2022-08-10T02:38:12.258Z,77.91304
2022-08-10T02:45:23.629Z,77.91304
2022-08-10T02:50:29.830Z,77.91304
2022-08-10T02:55:32.448Z,77.62256
2022-08-10T03:00:33.684Z,77.91304
2022-08-10T03:05:34.624Z,77.91304
2022-08-10T03:10:38.085Z,77.91304
2022-08-10T03:15:40.562Z,77.91304
2022-08-10T03:20:41.547Z,77.91304
2022-08-10T03:25:53.197Z,77.62256
2022-08-10T03:30:54.942Z,77.62256
2022-08-10T03:36:40.447Z,77.62256
2022-08-10T03:41:47.654Z,77.62256
2022-08-10T03:46:55.080Z,77.33333
2022-08-10T03:51:56.137Z,77.33333
2022-08-10T03:56:57.649Z,77.33333
2022-08-10T04:02:45.387Z,77.33333
2022-08-10T04:07:49.139Z,77.04536
2022-08-10T04:12:50.138Z,77.04536
2022-08-10T04:17:56.947Z,77.04536
2022-08-10T04:23:06.356Z,76.75862
2022-08-10T04:28:07.264Z,76.75862
2022-08-10T04:33:08.244Z,76.47312
2022-08-10T04:38:09.204Z,76.18884
2022-08-10T04:43:13.194Z,76.18884
2022-08-10T04:48:40.956Z,76.18884
2022-08-10T04:54:05.111Z,75.90578
2022-08-10T04:59:07.212Z,75.90578
2022-08-10T05:04:38.497Z,75.90578
2022-08-10T05:10:01.474Z,75.90578
2022-08-10T05:15:06.083Z,76.18884
2022-08-10T05:20:07.817Z,75.90578
2022-08-10T05:25:09.089Z,75.62393
2022-08-10T05:30:09.999Z,75.34328
2022-08-10T05:35:10.944Z,75.06383
2022-08-10T05:40:11.888Z,74.78556
2022-08-10T05:45:12.787Z,74.78556
2022-08-10T05:50:13.736Z,74.50847
2022-08-10T05:55:14.666Z,74.78556
2022-08-10T06:00:37.322Z,73.41176
2022-08-10T06:05:39.994Z,72.87029
2022-08-10T06:11:07.705Z,72.87029
2022-08-10T06:17:26.848Z,72.60125
2022-08-10T06:22:27.755Z,72.33333
2022-08-10T06:27:34.271Z,72.33333
2022-08-10T06:32:36.207Z,72.33333
2022-08-10T06:37:37.629Z,72.06653
2022-08-10T06:42:38.560Z,71.80083
2022-08-10T06:47:39.464Z,71.27273
2022-08-10T06:52:40.393Z,71.27273
2022-08-10T06:57:41.309Z,71.27273
2022-08-10T07:02:42.212Z,70.74897
2022-08-10T07:07:43.129Z,70.48871
2022-08-10T07:12:44.103Z,70.74897
2022-08-10T07:17:45.053Z,70.48871
2022-08-10T07:23:01.437Z,70.22951
2022-08-10T07:28:58.006Z,69.20325
2022-08-10T07:33:58.949Z,67.44689
2022-08-10T07:38:59.910Z,68.44444
2022-08-10T07:44:00.846Z,69.45825
2022-08-10T07:49:01.755Z,69.20325
2022-08-10T07:54:16.218Z,69.20325
2022-08-10T07:59:17.151Z,69.45825
2022-08-10T08:04:18.048Z,69.45825
2022-08-10T08:09:19.000Z,69.20325
2022-08-10T08:14:20.018Z,69.97137
2022-08-10T08:19:28.216Z,70.22951
2022-08-10T08:24:37.770Z,70.48871
2022-08-10T08:29:39.059Z,70.74897
2022-08-10T08:34:40.094Z,70.74897
2022-08-10T08:39:41.133Z,70.22951
2022-08-10T08:44:45.170Z,70.74897
2022-08-10T08:50:08.319Z,67.94366
2022-08-10T08:56:00.753Z,69.97137
2022-08-10T09:01:08.665Z,68.94929
2022-08-10T09:06:09.577Z,68.69636
2022-08-10T09:11:10.498Z,69.97137
2022-08-10T09:16:11.483Z,71.27273
2022-08-10T09:21:12.452Z,72.87029
2022-08-10T09:26:13.357Z,72.60125
2022-08-10T09:31:23.138Z,72.33333
2022-08-10T09:36:33.127Z,72.87029
2022-08-10T09:41:34.594Z,72.06653
2022-08-10T09:46:35.911Z,74.50847
2022-08-10T09:51:46.448Z,72.60125
2022-08-10T09:56:47.960Z,73.95781
2022-08-10T10:02:03.835Z,73.95781
2022-08-10T10:07:05.460Z,74.23256
2022-08-10T10:12:09.819Z,77.91304
2022-08-10T10:17:11.236Z,76.18884
2022-08-10T10:22:12.145Z,76.47312
2022-08-10T10:27:16.016Z,76.75862
2022-08-10T10:32:17.602Z,75.62393
2022-08-10T10:37:18.505Z,74.78556
2022-08-10T10:42:42.376Z,77.91304
2022-08-10T10:47:45.566Z,78.20479
2022-08-10T10:52:46.498Z,76.75862
2022-08-10T10:57:58.857Z,79.38462
2022-08-10T11:03:01.841Z,79.08772
2022-08-10T11:08:02.771Z,78.49782
2022-08-10T11:14:23.545Z,77.91304
2022-08-10T11:20:01.253Z,84.0
2022-08-10T11:25:04.834Z,79.68282
2022-08-10T11:30:05.744Z,78.79212
2022-08-10T11:35:10.198Z,81.5
2022-08-10T11:40:13.047Z,80.28319
2022-08-10T11:45:14.004Z,80.28319
2022-08-10T11:50:14.909Z,85.6092
2022-08-10T11:55:15.866Z,87.25581
2022-08-10T12:00:17.390Z,85.93548
2022-08-10T12:05:18.320Z,86.92343
2022-08-10T12:10:19.370Z,83.36652
2022-08-10T12:15:20.300Z,84.0
2022-08-10T12:20:21.207Z,82.11659
2022-08-10T12:25:57.831Z,84.31891
2022-08-10T12:30:59.521Z,82.11659
2022-08-10T12:36:17.976Z,78.79212
2022-08-10T12:41:43.613Z,85.2844
2022-08-10T12:46:46.242Z,81.19376
2022-08-10T12:51:49.568Z,80.58537
2022-08-10T12:56:50.856Z,75.62393
2022-08-10T13:02:06.681Z,74.23256
2022-08-10T13:08:24.608Z,73.14046
2022-08-10T13:13:28.504Z,83.36652
2022-08-10T13:18:29.499Z,78.20479
2022-08-10T13:23:30.414Z,75.90578
2022-08-10T13:28:35.606Z,73.68421
2022-08-10T13:34:41.575Z,72.60125
2022-08-10T13:39:58.194Z,74.23256
2022-08-10T13:45:01.703Z,72.87029
2022-08-10T13:50:02.620Z,73.14046
2022-08-10T13:55:03.618Z,73.68421
2022-08-10T14:00:36.761Z,76.47312
2022-08-10T14:05:39.173Z,72.87029
2022-08-10T14:11:08.363Z,74.23256
2022-08-10T14:16:12.389Z,74.23256
2022-08-10T14:21:13.314Z,72.33333
2022-08-10T14:26:16.129Z,78.20479
2022-08-10T14:31:21.602Z,74.50847
2022-08-10T14:36:24.468Z,75.90578
2022-08-10T14:42:03.792Z,77.62256
2022-08-10T14:47:08.590Z,75.62393
2022-08-10T14:52:55.306Z,75.62393
2022-08-10T14:58:17.303Z,73.68421
2022-08-10T15:04:01.340Z,73.95781
2022-08-10T15:09:03.686Z,75.06383
2022-08-10T15:20:01.114Z,74.23256
2022-08-10T15:25:05.776Z,78.49782
2022-08-10T15:30:18.610Z,78.20479
2022-08-10T15:35:19.531Z,79.68282
2022-08-10T15:40:32.337Z,78.49782
2022-08-10T15:45:35.559Z,75.90578
2022-08-10T15:50:40.095Z,75.34328
2022-08-10T15:55:45.316Z,75.90578
2022-08-10T16:00:46.886Z,75.06383
2022-08-10T16:06:01.069Z,75.34328
2022-08-10T16:11:04.091Z,76.47312
2022-08-10T16:16:05.013Z,76.18884
2022-08-10T16:21:05.924Z,75.62393
2022-08-10T16:26:15.197Z,75.34328
2022-08-10T16:31:18.356Z,75.34328
2022-08-10T16:36:19.288Z,77.33333
2022-08-10T16:42:02.970Z,76.75862
2022-08-10T16:47:06.429Z,76.47312
2022-08-10T16:52:07.415Z,76.18884
2022-08-10T16:57:08.330Z,76.18884
2022-08-10T17:02:09.335Z,76.18884
2022-08-10T17:07:10.440Z,76.18884
2022-08-10T17:12:11.372Z,76.75862
2022-08-10T17:17:12.313Z,77.33333
2022-08-10T17:22:13.236Z,77.62256
2022-08-10T17:28:05.341Z,77.91304
2022-08-10T17:33:36.597Z,78.49782
2022-08-10T17:38:37.911Z,78.20479
2022-08-10T17:43:58.572Z,78.20479
2022-08-10T17:49:03.969Z,77.91304
2022-08-10T17:54:05.028Z,77.91304
2022-08-10T17:59:11.511Z,76.75862
2022-08-10T18:04:18.070Z,75.62393
2022-08-10T18:09:19.005Z,76.18884
2022-08-10T18:14:19.922Z,76.18884
2022-08-10T18:24:21.396Z,76.75862
2022-08-10T18:29:22.401Z,76.75862
2022-08-10T18:34:23.353Z,76.18884
2022-08-10T18:39:24.322Z,75.62393
2022-08-10T18:44:25.255Z,76.47312
2022-08-10T18:49:26.174Z,77.33333
2022-08-10T18:54:39.862Z,77.91304
2022-08-10T19:00:07.974Z,78.49782
2022-08-10T19:05:30.229Z,78.49782
2022-08-10T19:10:33.105Z,78.49782
2022-08-10T19:15:34.132Z,78.79212
2022-08-10T19:20:37.042Z,79.08772
2022-08-10T19:26:32.912Z,79.38462
2022-08-10T19:31:45.650Z,79.38462
2022-08-10T19:36:46.601Z,79.38462
2022-08-10T19:41:47.500Z,79.38462
2022-08-10T19:46:55.317Z,79.68282
2022-08-10T19:51:56.278Z,79.38462
2022-08-10T19:56:57.240Z,79.38462
2022-08-10T20:01:58.879Z,79.38462
2022-08-10T20:06:59.821Z,79.38462
2022-08-10T20:12:00.794Z,79.08772
2022-08-10T20:17:02.137Z,78.79212
2022-08-10T20:22:03.063Z,79.08772
2022-08-10T20:27:18.329Z,79.68282
2022-08-10T20:32:59.169Z,79.98234
2022-08-10T20:38:03.466Z,80.28319
2022-08-10T20:43:05.591Z,80.58537
2022-08-10T20:48:06.500Z,80.28319
2022-08-10T20:53:07.413Z,80.28319
2022-08-10T20:58:10.684Z,80.58537
2022-08-10T21:03:20.957Z,79.98234
2022-08-10T21:08:23.260Z,79.68282
2022-08-10T21:13:24.222Z,79.08772
2022-08-10T21:18:25.323Z,79.38462
2022-08-10T21:23:30.534Z,78.79212
2022-08-10T21:28:31.843Z,78.49782
2022-08-10T21:33:32.771Z,78.49782
2022-08-10T21:38:33.676Z,78.20479
2022-08-10T21:43:44.717Z,77.91304
2022-08-10T21:48:46.939Z,77.91304
2022-08-10T21:53:58.849Z,77.91304
2022-08-10T21:58:59.831Z,78.20479
2022-08-10T22:04:00.758Z,78.49782
2022-08-10T22:09:01.762Z,78.20479
2022-08-10T22:14:02.654Z,78.20479
2022-08-10T22:19:13.478Z,78.20479
2022-08-10T22:24:16.884Z,77.91304
2022-08-10T22:29:20.060Z,77.91304
2022-08-10T22:34:20.974Z,78.20479
2022-08-10T22:40:11.314Z,78.20479
2022-08-10T22:45:14.291Z,78.20479
2022-08-10T22:50:20.168Z,78.20479
2022-08-10T22:55:21.068Z,78.49782
2022-08-10T23:00:31.395Z,78.20479
2022-08-10T23:05:32.792Z,78.49782
2022-08-10T23:10:33.691Z,78.49782
2022-08-10T23:15:34.596Z,78.49782
2022-08-10T23:20:35.507Z,78.79212
2022-08-10T23:25:36.426Z,78.79212
2022-08-10T23:30:45.196Z,78.79212
2022-08-10T23:36:31.733Z,78.79212
2022-08-10T23:41:35.907Z,79.08772
2022-08-10T23:46:36.923Z,79.08772
2022-08-10T23:51:38.893Z,79.38462
2022-08-10T23:56:55.958Z,79.38462
